Time,TemperatureF,DewpointF,PressureIn,WindDirection,WindDirectionDegrees,WindSpeedMPH,WindSpeedGustMPH,Humidity,HourlyPrecipIn,Conditions,Clouds,dailyrainin,SoftwareType,DateUTC
2013-01-01 00:00:00,48.9,47.8,30.19,East,90,0.0,0.0,96,0.00,SCT,,0.00,WeatherDisplay:10.37,2013-01-01 05:00:00,
2013-01-01 00:01:00,48.9,47.8,30.19,East,90,0.0,0.0,96,0.00,SCT,,0.00,WeatherDisplay:10.37,2013-01-01 05:01:00,
2013-01-01 00:06:00,48.7,47.7,30.19,East,90,0.0,0.0,96,0.00,SCT,,0.00,WeatherDisplay:10.37,2013-01-01 05:06:00,
2013-01-01 00:11:00,48.7,47.7,30.19,East,90,0.0,0.0,96,0.00,SCT,,0.00,WeatherDisplay:10.37,2013-01-01 05:11:00,
2013-01-01 00:16:00,48.7,47.7,30.19,East,90,0.0,0.0,96,0.00,SCT,,0.00,WeatherDisplay:10.37,2013-01-01 05:16:00,
2013-01-01 00:21:00,48.6,47.5,30.19,East,90,0.0,0.0,96,0.00,SCT,,0.00,WeatherDisplay:10.37,2013-01-01 05:21:00,
2013-01-01 00:26:00,48.6,47.5,30.19,East,90,0.0,0.0,96,0.00,SCT,,0.00,WeatherDisplay:10.37,2013-01-01 05:26:00,
2013-01-01 00:31:00,48.4,47.3,30.18,East,90,0.0,0.0,96,0.00,SCT,,0.00,WeatherDisplay:10.37,2013-01-01 05:31:00,
2013-01-01 00:36:00,48.4,47.3,30.18,East,90,0.0,0.0,96,0.00,SCT,,0.00,WeatherDisplay:10.37,2013-01-01 05:36:00,
2013-01-01 00:41:00,48.2,47.1,30.18,East,90,0.0,0.0,96,0.00,SCT,,0.00,WeatherDisplay:10.37,2013-01-01 05:41:00,
2013-01-01 00:46:00,48.0,46.9,30.18,East,90,0.0,0.0,96,0.00,SCT,,0.00,WeatherDisplay:10.37,2013-01-01 05:46:00,
2013-01-01 00:51:00,48.0,46.9,30.17,East,90,0.0,0.0,96,0.00,SCT,,0.00,WeatherDisplay:10.37,2013-01-01 05:51:00,
2013-01-01 00:56:00,48.0,46.9,30.16,East,90,0.0,0.0,96,0.00,SCT,,0.00,WeatherDisplay:10.37,2013-01-01 05:56:00,
2013-01-01 01:01:00,48.0,46.9,30.16,East,90,0.0,0.0,96,0.00,SCT,,0.00,WeatherDisplay:10.37,2013-01-01 06:01:00,
2013-01-01 01:06:00,47.8,46.8,30.17,East,90,0.0,0.0,96,0.00,SCT,,0.00,WeatherDisplay:10.37,2013-01-01 06:06:00,
2013-01-01 01:11:00,48.0,46.9,30.17,East,90,0.0,0.0,96,0.00,CLR,,0.00,WeatherDisplay:10.37,2013-01-01 06:11:00,
2013-01-01 01:16:00,48.0,46.9,30.18,East,90,0.0,0.0,96,0.00,CLR,,0.00,WeatherDisplay:10.37,2013-01-01 06:16:00,
2013-01-01 01:21:00,47.8,46.8,30.17,East,90,0.0,0.0,96,0.00,CLR,,0.00,WeatherDisplay:10.37,2013-01-01 06:21:00,
2013-01-01 01:26:00,47.8,46.8,30.17,East,90,0.0,0.0,96,0.00,CLR,,0.00,WeatherDisplay:10.37,2013-01-01 06:26:00,
2013-01-01 01:31:00,47.5,46.4,30.17,East,90,0.0,0.0,96,0.00,CLR,,0.00,WeatherDisplay:10.37,2013-01-01 06:31:00,
2013-01-01 01:36:00,47.5,46.4,30.17,East,90,0.0,0.0,96,0.00,CLR,,0.00,WeatherDisplay:10.37,2013-01-01 06:36:00,
2013-01-01 01:41:00,47.5,46.4,30.16,East,90,0.0,0.0,96,0.00,CLR,,0.00,WeatherDisplay:10.37,2013-01-01 06:41:00,
2013-01-01 01:46:00,47.3,46.2,30.16,East,90,0.0,0.0,96,0.00,CLR,,0.00,WeatherDisplay:10.37,2013-01-01 06:46:00,
2013-01-01 01:51:00,47.1,46.0,30.15,East,90,0.0,0.0,96,0.00,CLR,,0.00,WeatherDisplay:10.37,2013-01-01 06:51:00,
2013-01-01 01:56:00,47.3,46.2,30.15,East,90,0.0,0.0,96,0.00,CLR,,0.00,WeatherDisplay:10.37,2013-01-01 06:56:00,
2013-01-01 02:01:00,47.3,46.2,30.15,East,90,0.0,0.0,96,0.00,CLR,,0.00,WeatherDisplay:10.37,2013-01-01 07:01:00,
2013-01-01 02:06:00,47.3,46.2,30.15,East,90,0.0,0.0,96,0.00,CLR,,0.00,WeatherDisplay:10.37,2013-01-01 07:06:00,
2013-01-01 02:11:00,47.1,46.0,30.15,East,90,0.0,0.0,96,0.00,CLR,,0.00,WeatherDisplay:10.37,2013-01-01 07:11:00,
2013-01-01 02:16:00,46.9,45.9,30.15,East,90,0.0,0.0,96,0.00,CLR,,0.00,WeatherDisplay:10.37,2013-01-01 07:16:00,
2013-01-01 02:21:00,46.9,45.9,30.15,East,90,0.0,0.0,96,0.00,CLR,,0.00,WeatherDisplay:10.37,2013-01-01 07:21:00,
2013-01-01 02:26:00,46.9,45.9,30.14,East,90,0.0,0.0,96,0.00,CLR,,0.00,WeatherDisplay:10.37,2013-01-01 07:26:00,
2013-01-01 02:31:00,46.9,45.9,30.14,East,90,0.0,0.0,96,0.00,CLR,,0.00,WeatherDisplay:10.37,2013-01-01 07:31:00,
2013-01-01 02:36:00,46.9,45.9,30.14,East,90,0.0,0.0,96,0.00,CLR,,0.00,WeatherDisplay:10.37,2013-01-01 07:36:00,
2013-01-01 02:41:00,46.8,45.7,30.14,East,90,0.0,0.0,96,0.00,CLR,,0.00,WeatherDisplay:10.37,2013-01-01 07:41:00,
2013-01-01 02:46:00,46.8,45.7,30.14,East,90,0.0,0.0,96,0.00,CLR,,0.00,WeatherDisplay:10.37,2013-01-01 07:46:00,
2013-01-01 02:51:00,46.8,45.7,30.14,East,90,0.0,0.0,96,0.00,CLR,,0.00,WeatherDisplay:10.37,2013-01-01 07:51:00,
2013-01-01 02:56:00,46.8,46.0,30.13,East,90,0.0,0.0,97,0.00,CLR,,0.00,WeatherDisplay:10.37,2013-01-01 07:56:00,
2013-01-01 03:01:00,46.6,45.5,30.13,East,90,0.0,0.0,96,0.00,CLR,,0.00,WeatherDisplay:10.37,2013-01-01 08:01:00,
2013-01-01 03:06:00,46.6,45.5,30.13,East,90,0.0,0.0,96,0.00,CLR,,0.00,WeatherDisplay:10.37,2013-01-01 08:06:00,
2013-01-01 03:11:00,46.6,45.5,30.13,East,90,0.0,0.0,96,0.00,CLR,,0.00,WeatherDisplay:10.37,2013-01-01 08:11:00,
2013-01-01 03:16:00,46.4,45.3,30.13,East,90,0.0,0.0,96,0.00,CLR,,0.00,WeatherDisplay:10.37,2013-01-01 08:16:00,
2013-01-01 03:21:00,46.4,45.3,30.13,East,90,0.0,0.0,96,0.00,CLR,,0.00,WeatherDisplay:10.37,2013-01-01 08:21:00,
2013-01-01 03:26:00,46.4,45.6,30.13,East,90,0.0,0.0,97,0.00,CLR,,0.00,WeatherDisplay:10.37,2013-01-01 08:26:00,
2013-01-01 03:31:00,46.4,45.6,30.13,East,90,0.0,0.0,97,0.00,CLR,,0.00,WeatherDisplay:10.37,2013-01-01 08:31:00,
2013-01-01 03:36:00,46.2,45.4,30.13,East,90,0.0,0.0,97,0.00,CLR,,0.00,WeatherDisplay:10.37,2013-01-01 08:36:00,
2013-01-01 03:41:00,46.2,45.1,30.13,East,90,0.0,0.0,96,0.00,CLR,,0.00,WeatherDisplay:10.37,2013-01-01 08:41:00,
2013-01-01 03:46:00,46.2,45.4,30.13,East,90,0.0,0.0,97,0.00,CLR,,0.00,WeatherDisplay:10.37,2013-01-01 08:46:00,
2013-01-01 03:51:00,46.0,45.2,30.13,East,90,0.0,0.0,97,0.00,CLR,,0.00,WeatherDisplay:10.37,2013-01-01 08:51:00,
2013-01-01 03:56:00,46.0,45.0,30.13,East,90,0.0,0.0,96,0.00,CLR,,0.00,WeatherDisplay:10.37,2013-01-01 08:56:00,
2013-01-01 04:01:00,46.0,45.0,30.13,East,90,0.0,0.0,96,0.00,CLR,,0.00,WeatherDisplay:10.37,2013-01-01 09:01:00,
2013-01-01 04:06:00,46.0,45.0,30.13,East,90,0.0,0.0,96,0.00,CLR,,0.00,WeatherDisplay:10.37,2013-01-01 09:06:00,
2013-01-01 04:11:00,46.2,45.4,30.13,East,90,0.0,0.0,97,0.00,CLR,,0.00,WeatherDisplay:10.37,2013-01-01 09:11:00,
2013-01-01 04:16:00,46.2,45.4,30.13,East,90,0.0,0.0,97,0.00,CLR,,0.00,WeatherDisplay:10.37,2013-01-01 09:16:00,
2013-01-01 04:21:00,46.4,45.6,30.13,East,90,0.0,0.0,97,0.00,CLR,,0.00,WeatherDisplay:10.37,2013-01-01 09:21:00,
2013-01-01 04:26:00,46.2,45.4,30.13,East,90,0.0,0.0,97,0.00,CLR,,0.00,WeatherDisplay:10.37,2013-01-01 09:26:00,
2013-01-01 04:31:00,46.2,45.4,30.13,East,90,0.0,0.0,97,0.00,CLR,,0.00,WeatherDisplay:10.37,2013-01-01 09:31:00,
2013-01-01 04:37:00,46.2,45.4,30.13,East,90,0.0,0.0,97,0.00,CLR,,0.00,WeatherDisplay:10.37,2013-01-01 09:37:00,
2013-01-01 04:42:00,46.2,45.4,30.13,East,90,0.0,0.0,97,0.00,CLR,,0.00,WeatherDisplay:10.37,2013-01-01 09:42:00,
2013-01-01 04:47:00,46.2,45.4,30.13,East,90,0.0,0.0,97,0.00,CLR,,0.00,WeatherDisplay:10.37,2013-01-01 09:47:00,
2013-01-01 04:52:00,46.0,45.0,30.13,East,90,0.0,0.0,96,0.00,CLR,,0.00,WeatherDisplay:10.37,2013-01-01 09:52:00,
2013-01-01 04:57:00,46.0,45.0,30.12,East,90,0.0,0.0,96,0.00,CLR,,0.00,WeatherDisplay:10.37,2013-01-01 09:57:00,
2013-01-01 05:02:00,45.9,44.8,30.13,East,90,0.0,0.0,96,0.00,CLR,,0.00,WeatherDisplay:10.37,2013-01-01 10:02:00,
2013-01-01 05:07:00,46.0,45.0,30.13,East,90,0.0,0.0,96,0.00,CLR,,0.00,WeatherDisplay:10.37,2013-01-01 10:07:00,
2013-01-01 05:12:00,45.9,44.8,30.13,East,90,0.0,0.0,96,0.00,OVC,,0.00,WeatherDisplay:10.37,2013-01-01 10:12:00,
2013-01-01 05:17:00,45.7,44.6,30.13,East,90,0.0,0.0,96,0.00,OVC,,0.00,WeatherDisplay:10.37,2013-01-01 10:17:00,
2013-01-01 05:22:00,45.7,44.6,30.12,East,90,0.0,0.0,96,0.00,OVC,,0.00,WeatherDisplay:10.37,2013-01-01 10:22:00,
2013-01-01 05:27:00,45.9,44.8,30.13,East,90,0.0,0.0,96,0.00,OVC,,0.00,WeatherDisplay:10.37,2013-01-01 10:27:00,
2013-01-01 05:32:00,46.0,45.0,30.12,East,90,0.0,0.0,96,0.00,OVC,,0.00,WeatherDisplay:10.37,2013-01-01 10:32:00,
2013-01-01 05:37:00,46.0,45.2,30.12,East,90,0.0,0.0,97,0.00,OVC,,0.00,WeatherDisplay:10.37,2013-01-01 10:37:00,
2013-01-01 05:42:00,46.4,45.6,30.12,East,90,0.0,0.0,97,0.00,OVC,,0.00,WeatherDisplay:10.37,2013-01-01 10:42:00,
2013-01-01 05:47:00,46.6,45.8,30.12,East,90,0.0,0.0,97,0.00,OVC,,0.00,WeatherDisplay:10.37,2013-01-01 10:47:00,
2013-01-01 05:52:00,46.6,45.8,30.12,East,90,0.0,0.0,97,0.00,OVC,,0.00,WeatherDisplay:10.37,2013-01-01 10:52:00,
2013-01-01 05:57:00,46.6,45.8,30.12,East,90,0.0,0.0,97,0.00,OVC,,0.00,WeatherDisplay:10.37,2013-01-01 10:57:00,
2013-01-01 06:02:00,46.6,45.8,30.11,East,90,0.0,0.0,97,0.00,OVC,,0.00,WeatherDisplay:10.37,2013-01-01 11:02:00,
2013-01-01 06:07:00,46.6,45.8,30.11,East,90,0.0,0.0,97,0.00,OVC,,0.00,WeatherDisplay:10.37,2013-01-01 11:07:00,
2013-01-01 06:12:00,46.9,46.1,30.11,East,90,0.0,0.0,97,0.00,BKN,,0.00,WeatherDisplay:10.37,2013-01-01 11:12:00,
2013-01-01 06:17:00,47.3,46.5,30.11,East,90,0.0,0.0,97,0.00,BKN,,0.00,WeatherDisplay:10.37,2013-01-01 11:17:00,
2013-01-01 06:22:00,47.8,47.0,30.11,East,90,0.0,0.0,97,0.00,BKN,,0.00,WeatherDisplay:10.37,2013-01-01 11:22:00,
2013-01-01 06:27:00,48.0,47.2,30.12,East,90,0.0,0.0,97,0.00,BKN,,0.00,WeatherDisplay:10.37,2013-01-01 11:27:00,
2013-01-01 06:32:00,48.4,47.6,30.11,East,90,0.0,0.0,97,0.00,BKN,,0.00,WeatherDisplay:10.37,2013-01-01 11:32:00,
2013-01-01 06:37:00,48.6,47.7,30.11,East,90,0.0,0.0,97,0.00,BKN,,0.00,WeatherDisplay:10.37,2013-01-01 11:37:00,
2013-01-01 06:42:00,48.9,48.1,30.11,East,90,0.0,0.0,97,0.00,BKN,,0.00,WeatherDisplay:10.37,2013-01-01 11:42:00,
2013-01-01 06:47:00,49.1,48.3,30.11,East,90,0.0,0.0,97,0.00,BKN,,0.00,WeatherDisplay:10.37,2013-01-01 11:47:00,
2013-01-01 06:52:00,49.3,48.5,30.11,East,90,0.0,0.0,97,0.00,BKN,,0.00,WeatherDisplay:10.37,2013-01-01 11:52:00,
2013-01-01 06:57:00,49.5,48.6,30.11,East,90,0.0,0.0,97,0.00,BKN,,0.00,WeatherDisplay:10.37,2013-01-01 11:57:00,
2013-01-01 07:02:00,49.6,48.8,30.11,East,90,0.0,0.0,97,0.00,BKN,,0.00,WeatherDisplay:10.37,2013-01-01 12:02:00,
2013-01-01 07:08:00,50.2,49.4,30.11,East,90,0.0,0.0,97,0.00,BKN,,0.00,WeatherDisplay:10.37,2013-01-01 12:08:00,
2013-01-01 07:13:00,50.7,49.9,30.11,East,90,0.0,0.0,97,0.00,FEW,,0.00,WeatherDisplay:10.37,2013-01-01 12:13:00,
2013-01-01 07:18:00,51.4,50.6,30.11,East,90,0.0,0.0,97,0.00,FEW,,0.00,WeatherDisplay:10.37,2013-01-01 12:18:00,
2013-01-01 07:24:00,51.6,50.8,30.10,East,90,0.0,0.0,97,0.00,FEW,,0.00,WeatherDisplay:10.37,2013-01-01 12:24:00,
2013-01-01 07:29:00,52.3,51.5,30.10,East,90,0.0,0.0,97,0.00,FEW,,0.00,WeatherDisplay:10.37,2013-01-01 12:29:00,
2013-01-01 07:34:00,53.2,52.4,30.11,East,90,0.0,0.0,97,0.00,FEW,,0.00,WeatherDisplay:10.37,2013-01-01 12:34:00,
2013-01-01 07:39:00,53.4,52.6,30.11,East,90,0.2,0.0,97,0.00,FEW,,0.00,WeatherDisplay:10.37,2013-01-01 12:39:00,
2013-01-01 07:44:00,53.6,52.8,30.11,East,90,0.1,2.3,97,0.00,FEW,,0.00,WeatherDisplay:10.37,2013-01-01 12:44:00,
2013-01-01 07:49:00,54.0,53.1,30.11,East,90,0.0,0.0,97,0.00,FEW,,0.00,WeatherDisplay:10.37,2013-01-01 12:49:00,
2013-01-01 07:54:00,54.1,53.3,30.11,East,90,0.0,0.0,97,0.00,FEW,,0.00,WeatherDisplay:10.37,2013-01-01 12:54:00,
2013-01-01 07:59:00,54.3,53.5,30.11,East,90,0.0,0.0,97,0.00,FEW,,0.00,WeatherDisplay:10.37,2013-01-01 12:59:00,
2013-01-01 08:04:00,55.2,54.4,30.10,East,90,0.0,0.0,97,0.00,OVC,,0.00,WeatherDisplay:10.37,2013-01-01 13:04:00,
2013-01-01 08:09:00,55.4,54.6,30.10,East,90,0.5,5.8,97,0.00,OVC,,0.00,WeatherDisplay:10.37,2013-01-01 13:09:00,
2013-01-01 08:14:00,55.8,54.9,30.10,SE,135,0.0,0.0,97,0.00,OVC,,0.00,WeatherDisplay:10.37,2013-01-01 13:14:00,
2013-01-01 08:19:00,56.1,55.3,30.10,SE,135,0.0,1.1,97,0.00,OVC,,0.00,WeatherDisplay:10.37,2013-01-01 13:19:00,
2013-01-01 08:24:00,56.5,55.6,30.10,SE,135,0.0,0.0,97,0.00,OVC,,0.00,WeatherDisplay:10.37,2013-01-01 13:24:00,
2013-01-01 08:29:00,56.8,56.0,30.11,SE,135,0.0,2.3,97,0.00,OVC,,0.00,WeatherDisplay:10.37,2013-01-01 13:29:00,
2013-01-01 08:34:00,57.4,56.2,30.11,SE,135,0.1,2.6,96,0.00,OVC,,0.00,WeatherDisplay:10.37,2013-01-01 13:34:00,
2013-01-01 08:39:00,57.7,56.3,30.11,SE,135,0.5,0.0,95,0.00,OVC,,0.00,WeatherDisplay:10.37,2013-01-01 13:39:00,
2013-01-01 08:44:00,58.1,56.4,30.11,SE,135,0.9,5.8,94,0.00,OVC,,0.00,WeatherDisplay:10.37,2013-01-01 13:44:00,
2013-01-01 08:49:00,58.6,56.6,30.12,SW,225,0.2,2.3,93,0.00,OVC,,0.00,WeatherDisplay:10.37,2013-01-01 13:49:00,
2013-01-01 08:54:00,59.2,56.9,30.12,SW,225,0.1,5.8,92,0.00,OVC,,0.00,WeatherDisplay:10.37,2013-01-01 13:54:00,
2013-01-01 08:59:00,59.5,56.6,30.13,SW,225,1.1,4.6,90,0.00,OVC,,0.00,WeatherDisplay:10.37,2013-01-01 13:59:00,
2013-01-01 09:04:00,59.9,57.0,30.13,SW,225,0.2,2.3,90,0.00,OVC,,0.00,WeatherDisplay:10.37,2013-01-01 14:04:00,
2013-01-01 09:09:00,60.4,57.2,30.13,SW,225,0.8,2.7,89,0.00,OVC,,0.00,WeatherDisplay:10.37,2013-01-01 14:09:00,
2013-01-01 09:14:00,60.6,57.0,30.13,SW,225,0.4,2.3,88,0.00,OVC,,0.00,WeatherDisplay:10.37,2013-01-01 14:14:00,
2013-01-01 09:19:00,61.0,57.4,30.13,SW,225,0.0,1.1,88,0.00,OVC,,0.00,WeatherDisplay:10.37,2013-01-01 14:19:00,
2013-01-01 09:24:00,61.3,57.4,30.13,SW,225,0.2,1.1,87,0.00,OVC,,0.00,WeatherDisplay:10.37,2013-01-01 14:24:00,
2013-01-01 09:29:00,61.9,58.0,30.13,SW,225,0.0,0.0,87,0.00,OVC,,0.00,WeatherDisplay:10.37,2013-01-01 14:29:00,
2013-01-01 09:34:00,62.2,58.0,30.13,SW,225,0.7,2.3,86,0.00,OVC,,0.00,WeatherDisplay:10.37,2013-01-01 14:34:00,
2013-01-01 09:39:00,62.8,58.2,30.13,SW,225,0.0,4.6,85,0.00,OVC,,0.00,WeatherDisplay:10.37,2013-01-01 14:39:00,
2013-01-01 09:44:00,63.1,58.2,30.13,SW,225,0.0,1.1,84,0.00,OVC,,0.00,WeatherDisplay:10.37,2013-01-01 14:44:00,
2013-01-01 09:49:00,63.5,58.2,30.13,SW,225,0.6,2.7,83,0.00,OVC,,0.00,WeatherDisplay:10.37,2013-01-01 14:49:00,
2013-01-01 09:54:00,64.0,58.4,30.12,SW,225,0.5,2.3,82,0.00,OVC,,0.00,WeatherDisplay:10.37,2013-01-01 14:54:00,
2013-01-01 09:59:00,65.1,58.4,30.12,SW,225,1.1,2.7,79,0.00,OVC,,0.00,WeatherDisplay:10.37,2013-01-01 14:59:00,
2013-01-01 10:04:00,65.5,58.1,30.12,SW,225,1.8,8.1,77,0.00,OVC,,0.00,WeatherDisplay:10.37,2013-01-01 15:04:00,
2013-01-01 10:09:00,66.0,58.6,30.12,SW,225,0.0,0.0,77,0.00,OVC,,0.00,WeatherDisplay:10.37,2013-01-01 15:09:00,
2013-01-01 10:14:00,66.4,58.6,30.12,SW,225,0.4,5.8,76,0.00,OVC,,0.00,WeatherDisplay:10.37,2013-01-01 15:14:00,
2013-01-01 10:19:00,67.1,58.5,30.12,SE,135,0.2,3.5,74,0.00,OVC,,0.00,WeatherDisplay:10.37,2013-01-01 15:19:00,
2013-01-01 10:24:00,67.6,58.3,30.12,SW,225,2.1,4.1,72,0.00,OVC,,0.00,WeatherDisplay:10.37,2013-01-01 15:24:00,
2013-01-01 10:29:00,68.2,58.8,30.13,SW,225,0.9,8.1,72,0.00,OVC,,0.00,WeatherDisplay:10.37,2013-01-01 15:29:00,
2013-01-01 10:34:00,68.7,59.3,30.13,SW,225,2.1,5.8,72,0.00,OVC,,0.00,WeatherDisplay:10.37,2013-01-01 15:34:00,
2013-01-01 10:39:00,68.9,59.1,30.12,SW,225,2.1,8.1,71,0.00,OVC,,0.00,WeatherDisplay:10.37,2013-01-01 15:39:00,
2013-01-01 10:44:00,68.9,58.7,30.12,SW,225,1.5,4.6,70,0.00,OVC,,0.00,WeatherDisplay:10.37,2013-01-01 15:44:00,
2013-01-01 10:49:00,68.9,58.7,30.12,SW,225,1.5,5.8,70,0.00,OVC,,0.00,WeatherDisplay:10.37,2013-01-01 15:49:00,
2013-01-01 10:54:00,68.9,58.7,30.12,SW,225,0.4,3.5,70,0.00,OVC,,0.00,WeatherDisplay:10.37,2013-01-01 15:54:00,
2013-01-01 10:59:00,69.4,59.6,30.11,South,180,1.0,2.3,71,0.00,OVC,,0.00,WeatherDisplay:10.37,2013-01-01 15:59:00,
2013-01-01 11:03:00,69.6,58.6,30.11,SW,225,0.6,5.8,68,0.00,CLR,,0.00,WeatherDisplay:10.37,2013-01-01 16:03:00,
2013-01-01 11:08:00,70.5,59.0,30.11,SW,225,2.0,6.4,67,0.00,CLR,,0.00,WeatherDisplay:10.37,2013-01-01 16:08:00,
2013-01-01 11:13:00,70.9,59.4,30.11,SW,225,0.1,2.6,67,0.00,CLR,,0.00,WeatherDisplay:10.37,2013-01-01 16:13:00,
2013-01-01 11:21:00,71.1,59.5,30.10,SW,225,0.2,2.8,67,0.00,CLR,,0.00,WeatherDisplay:10.37,2013-01-01 16:21:00,
2013-01-01 11:26:00,71.1,59.5,30.10,SW,225,0.2,2.8,67,0.00,CLR,,0.00,WeatherDisplay:10.37,2013-01-01 16:26:00,
2013-01-01 11:31:00,72.0,59.6,30.10,SW,225,2.8,6.9,65,0.00,CLR,,0.00,WeatherDisplay:10.37,2013-01-01 16:31:00,
2013-01-01 11:36:00,71.8,59.4,30.10,SW,225,0.6,2.3,65,0.00,CLR,,0.00,WeatherDisplay:10.37,2013-01-01 16:36:00,
2013-01-01 11:41:00,72.3,59.9,30.10,SW,225,2.1,5.8,65,0.00,CLR,,0.00,WeatherDisplay:10.37,2013-01-01 16:41:00,
2013-01-01 11:46:00,72.5,59.2,30.10,East,90,1.2,2.7,63,0.00,CLR,,0.00,WeatherDisplay:10.37,2013-01-01 16:46:00,
2013-01-01 11:51:00,72.3,59.0,30.09,West,270,1.5,5.8,63,0.00,CLR,,0.00,WeatherDisplay:10.37,2013-01-01 16:51:00,
2013-01-01 11:56:00,72.1,58.8,30.08,SW,225,1.7,5.8,63,0.00,CLR,,0.00,WeatherDisplay:10.37,2013-01-01 16:56:00,
2013-01-01 12:01:00,71.8,58.5,30.08,SW,225,2.6,6.9,63,0.00,CLR,,0.00,WeatherDisplay:10.37,2013-01-01 17:01:00,
2013-01-01 12:06:00,71.6,58.8,30.08,SW,225,0.6,2.3,64,0.00,CLR,,0.00,WeatherDisplay:10.37,2013-01-01 17:06:00,
2013-01-01 12:11:00,71.4,58.6,30.08,SW,225,2.1,5.8,64,0.00,CLR,,0.00,WeatherDisplay:10.37,2013-01-01 17:11:00,
2013-01-01 12:16:00,71.4,59.0,30.08,West,270,0.7,10.4,65,0.00,CLR,,0.00,WeatherDisplay:10.37,2013-01-01 17:16:00,
2013-01-01 12:21:00,71.4,58.6,30.07,SW,225,1.5,5.8,64,0.00,CLR,,0.00,WeatherDisplay:10.37,2013-01-01 17:21:00,
2013-01-01 12:26:00,71.2,58.4,30.07,SW,225,0.4,2.3,64,0.00,CLR,,0.00,WeatherDisplay:10.37,2013-01-01 17:26:00,
2013-01-01 12:31:00,71.4,58.6,30.07,SW,225,1.6,5.8,64,0.00,CLR,,0.00,WeatherDisplay:10.37,2013-01-01 17:31:00,
2013-01-01 12:36:00,72.1,59.3,30.06,SW,225,1.2,5.8,64,0.00,CLR,,0.00,WeatherDisplay:10.37,2013-01-01 17:36:00,
2013-01-01 12:41:00,72.1,58.8,30.06,SW,225,2.3,4.6,63,0.00,CLR,,0.00,WeatherDisplay:10.37,2013-01-01 17:41:00,
2013-01-01 12:46:00,72.7,58.5,30.06,SW,225,1.8,5.8,61,0.00,CLR,,0.00,WeatherDisplay:10.37,2013-01-01 17:46:00,
2013-01-01 12:51:00,72.7,58.9,30.06,SW,225,1.2,5.8,62,0.00,CLR,,0.00,WeatherDisplay:10.37,2013-01-01 17:51:00,
2013-01-01 12:55:00,73.0,59.7,30.06,SW,225,0.9,2.5,63,0.00,CLR,,0.00,WeatherDisplay:10.37,2013-01-01 17:55:00,
2013-01-01 13:00:00,72.7,59.4,30.05,SW,225,0.4,2.6,63,0.00,CLR,,0.00,WeatherDisplay:10.37,2013-01-01 18:00:00,
2013-01-01 13:05:00,72.7,59.8,30.05,SW,225,1.7,2.7,64,0.00,CLR,,0.00,WeatherDisplay:10.37,2013-01-01 18:05:00,
2013-01-01 13:10:00,72.7,59.4,30.05,SW,225,1.2,2.7,63,0.00,CLR,,0.00,WeatherDisplay:10.37,2013-01-01 18:10:00,
2013-01-01 13:15:00,72.7,58.9,30.05,SW,225,0.3,5.8,62,0.00,CLR,,0.00,WeatherDisplay:10.37,2013-01-01 18:15:00,
2013-01-01 13:20:00,72.3,59.5,30.05,SW,225,1.6,4.6,64,0.00,CLR,,0.00,WeatherDisplay:10.37,2013-01-01 18:20:00,
2013-01-01 13:25:00,72.1,59.3,30.04,SW,225,1.2,5.4,64,0.00,CLR,,0.00,WeatherDisplay:10.37,2013-01-01 18:25:00,
2013-01-01 13:30:00,72.1,59.7,30.04,SW,225,2.0,5.8,65,0.00,CLR,,0.00,WeatherDisplay:10.37,2013-01-01 18:30:00,
2013-01-01 13:35:00,72.7,59.4,30.03,SW,225,0.5,2.3,63,0.00,CLR,,0.00,WeatherDisplay:10.37,2013-01-01 18:35:00,
2013-01-01 13:40:00,73.4,59.1,30.04,SW,225,1.8,4.1,61,0.00,CLR,,0.00,WeatherDisplay:10.37,2013-01-01 18:40:00,
2013-01-01 13:45:00,72.7,58.5,30.03,SW,225,1.7,2.7,61,0.00,CLR,,0.00,WeatherDisplay:10.37,2013-01-01 18:45:00,
2013-01-01 13:50:00,72.5,58.7,30.03,SW,225,1.6,5.8,62,0.00,CLR,,0.00,WeatherDisplay:10.37,2013-01-01 18:50:00,
2013-01-01 13:55:00,73.0,58.8,30.03,SW,225,1.0,2.7,61,0.00,CLR,,0.00,WeatherDisplay:10.37,2013-01-01 18:55:00,
2013-01-01 14:00:00,73.6,59.3,30.02,SW,225,1.0,5.8,61,0.00,CLR,,0.00,WeatherDisplay:10.37,2013-01-01 19:00:00,
2013-01-01 14:05:00,73.8,58.5,30.02,SW,225,2.6,6.9,59,0.00,CLR,,0.00,WeatherDisplay:10.37,2013-01-01 19:05:00,
2013-01-01 14:10:00,73.2,58.5,30.02,SW,225,0.0,4.6,60,0.00,CLR,,0.00,WeatherDisplay:10.37,2013-01-01 19:10:00,
2013-01-01 14:15:00,73.6,58.8,30.02,SW,225,2.7,8.1,60,0.00,CLR,,0.00,WeatherDisplay:10.37,2013-01-01 19:15:00,
2013-01-01 14:20:00,73.8,59.0,30.02,SW,225,2.0,5.8,60,0.00,CLR,,0.00,WeatherDisplay:10.37,2013-01-01 19:20:00,
2013-01-01 14:25:00,73.9,59.2,30.02,SW,225,0.9,5.8,60,0.00,CLR,,0.00,WeatherDisplay:10.37,2013-01-01 19:25:00,
2013-01-01 14:30:00,73.9,59.2,30.01,SW,225,0.2,2.3,60,0.00,CLR,,0.00,WeatherDisplay:10.37,2013-01-01 19:30:00,
2013-01-01 14:35:00,73.9,59.2,30.01,SW,225,4.9,-999.0,60,0.00,CLR,,0.00,WeatherDisplay:10.37,2013-01-01 19:35:00,
2013-01-01 14:40:00,74.1,58.4,30.01,SW,225,3.3,-999.0,58,0.00,CLR,,0.00,WeatherDisplay:10.37,2013-01-01 19:40:00,
2013-01-01 14:45:00,74.3,58.6,30.02,SW,225,2.7,8.1,58,0.00,CLR,,0.00,WeatherDisplay:10.37,2013-01-01 19:45:00,
2013-01-01 14:50:00,73.8,58.5,30.01,West,270,1.8,5.8,59,0.00,CLR,,0.00,WeatherDisplay:10.37,2013-01-01 19:50:00,
2013-01-01 14:55:00,73.2,59.0,30.01,SW,225,0.2,2.3,61,0.00,CLR,,0.00,WeatherDisplay:10.37,2013-01-01 19:55:00,
2013-01-01 15:00:00,73.2,59.4,30.01,SW,225,0.3,1.4,62,0.00,FEW,,0.00,WeatherDisplay:10.37,2013-01-01 20:00:00,
2013-01-01 15:05:00,74.1,59.3,30.01,SW,225,0.4,2.3,60,0.00,FEW,,0.00,WeatherDisplay:10.37,2013-01-01 20:05:00,
2013-01-01 15:10:00,74.1,59.3,30.01,SW,225,0.0,1.4,60,0.00,FEW,,0.00,WeatherDisplay:10.37,2013-01-01 20:10:00,
2013-01-01 15:15:00,74.7,58.9,30.01,SW,225,2.0,5.8,58,0.00,FEW,,0.00,WeatherDisplay:10.37,2013-01-01 20:15:00,
2013-01-01 15:20:00,74.7,59.4,30.01,SW,225,0.5,2.3,59,0.00,FEW,,0.00,WeatherDisplay:10.37,2013-01-01 20:20:00,
2013-01-01 15:25:00,75.0,59.7,30.01,SW,225,2.4,5.8,59,0.00,FEW,,0.00,WeatherDisplay:10.37,2013-01-01 20:25:00,
2013-01-01 15:30:00,74.7,59.4,30.02,SW,225,0.6,2.3,59,0.00,FEW,,0.00,WeatherDisplay:10.37,2013-01-01 20:30:00,
2013-01-01 15:35:00,74.1,58.9,30.02,SW,225,1.3,4.6,59,0.00,FEW,,0.00,WeatherDisplay:10.37,2013-01-01 20:35:00,
2013-01-01 15:40:00,73.9,59.2,30.02,SW,225,2.0,5.8,60,0.00,FEW,,0.00,WeatherDisplay:10.37,2013-01-01 20:40:00,
2013-01-01 15:45:00,73.6,59.3,30.02,SW,225,0.7,2.3,61,0.00,FEW,,0.00,WeatherDisplay:10.37,2013-01-01 20:45:00,
2013-01-01 15:50:00,73.2,59.4,30.01,SW,225,0.4,2.3,62,0.00,FEW,,0.00,WeatherDisplay:10.37,2013-01-01 20:50:00,
2013-01-01 15:55:00,73.2,59.0,30.02,SW,225,0.3,2.3,61,0.00,FEW,,0.00,WeatherDisplay:10.37,2013-01-01 20:55:00,
2013-01-01 16:00:00,73.6,60.2,30.01,SW,225,1.5,5.8,63,0.00,BKN,,0.00,WeatherDisplay:10.37,2013-01-01 21:00:00,
2013-01-01 16:05:00,73.8,59.9,30.02,SW,225,0.0,0.0,62,0.00,BKN,,0.00,WeatherDisplay:10.37,2013-01-01 21:05:00,
2013-01-01 16:10:00,73.9,59.6,30.02,SW,225,0.1,2.3,61,0.00,BKN,,0.00,WeatherDisplay:10.37,2013-01-01 21:10:00,
2013-01-01 16:15:00,73.8,59.9,30.02,SW,225,1.3,5.8,62,0.00,BKN,,0.00,WeatherDisplay:10.37,2013-01-01 21:15:00,
2013-01-01 16:20:00,73.8,58.5,30.02,South,180,1.4,5.8,59,0.00,BKN,,0.00,WeatherDisplay:10.37,2013-01-01 21:20:00,
2013-01-01 16:25:00,73.2,59.0,30.01,SW,225,1.0,4.6,61,0.00,BKN,,0.00,WeatherDisplay:10.37,2013-01-01 21:25:00,
2013-01-01 16:30:00,73.0,58.8,30.01,SW,225,0.9,2.3,61,0.00,BKN,,0.00,WeatherDisplay:10.37,2013-01-01 21:30:00,
2013-01-01 16:35:00,73.0,58.8,30.01,SW,225,0.0,0.0,61,0.00,BKN,,0.00,WeatherDisplay:10.37,2013-01-01 21:35:00,
2013-01-01 16:40:00,72.9,59.1,30.00,SW,225,1.1,2.8,62,0.00,BKN,,0.00,WeatherDisplay:10.37,2013-01-01 21:40:00,
2013-01-01 16:45:00,72.5,59.2,30.01,SW,225,0.7,2.3,63,0.00,BKN,,0.00,WeatherDisplay:10.37,2013-01-01 21:45:00,
2013-01-01 16:50:00,72.1,58.8,30.00,SW,225,1.1,2.3,63,0.00,BKN,,0.00,WeatherDisplay:10.37,2013-01-01 21:50:00,
2013-01-01 16:55:00,71.8,58.5,30.00,SW,225,1.5,3.5,63,0.00,BKN,,0.00,WeatherDisplay:10.37,2013-01-01 21:55:00,
2013-01-01 17:00:00,71.4,58.6,30.01,SW,225,0.2,2.3,64,0.00,BKN,,0.00,WeatherDisplay:10.37,2013-01-01 22:00:00,
2013-01-01 17:05:00,71.2,58.4,30.01,SW,225,1.7,2.8,64,0.00,BKN,,0.00,WeatherDisplay:10.37,2013-01-01 22:05:00,
2013-01-01 17:10:00,71.2,58.4,30.02,SW,225,0.0,1.1,64,0.00,FEW,,0.00,WeatherDisplay:10.37,2013-01-01 22:10:00,
2013-01-01 17:15:00,70.9,58.5,30.02,SW,225,0.1,1.1,65,0.00,FEW,,0.00,WeatherDisplay:10.37,2013-01-01 22:15:00,
2013-01-01 17:20:00,70.5,58.6,30.02,SW,225,0.0,1.1,66,0.00,FEW,,0.00,WeatherDisplay:10.37,2013-01-01 22:20:00,
2013-01-01 17:25:00,70.2,58.3,30.02,SW,225,0.2,1.1,66,0.00,FEW,,0.00,WeatherDisplay:10.37,2013-01-01 22:25:00,
2013-01-01 17:30:00,70.0,58.5,30.02,SW,225,0.6,2.3,67,0.00,FEW,,0.00,WeatherDisplay:10.37,2013-01-01 22:30:00,
2013-01-01 17:35:00,69.6,58.2,30.02,SW,225,0.0,1.1,67,0.00,FEW,,0.00,WeatherDisplay:10.37,2013-01-01 22:35:00,
2013-01-01 17:40:00,69.4,58.4,30.02,SW,225,0.4,2.3,68,0.00,FEW,,0.00,WeatherDisplay:10.37,2013-01-01 22:40:00,
2013-01-01 17:50:00,69.1,58.1,30.02,SW,225,0.0,0.0,68,0.00,FEW,,0.00,WeatherDisplay:10.37,2013-01-01 22:50:00,
2013-01-01 17:55:00,68.2,57.6,30.01,SW,225,0.0,0.0,69,0.00,FEW,,0.00,WeatherDisplay:10.37,2013-01-01 22:55:00,
2013-01-01 18:00:00,67.8,57.7,30.01,SW,225,0.0,0.0,70,0.00,FEW,,0.00,WeatherDisplay:10.37,2013-01-01 23:00:00,
2013-01-01 18:05:00,67.3,57.9,30.01,SW,225,0.0,0.0,72,0.00,FEW,,0.00,WeatherDisplay:10.37,2013-01-01 23:05:00,
2013-01-01 18:10:00,66.9,57.6,30.01,SW,225,0.0,0.0,72,0.00,FEW,,0.00,WeatherDisplay:10.37,2013-01-01 23:10:00,
2013-01-01 18:15:00,66.0,57.5,30.01,SW,225,0.0,0.0,74,0.00,CLR,,0.00,WeatherDisplay:10.37,2013-01-01 23:15:00,
2013-01-01 18:20:00,65.7,57.5,30.00,SW,225,0.0,0.0,75,0.00,CLR,,0.00,WeatherDisplay:10.37,2013-01-01 23:20:00,
2013-01-01 18:25:00,65.1,57.4,30.00,SW,225,0.0,0.0,76,0.00,CLR,,0.00,WeatherDisplay:10.37,2013-01-01 23:25:00,
2013-01-01 18:30:00,64.8,57.0,30.01,SW,225,0.0,0.0,76,0.00,CLR,,0.00,WeatherDisplay:10.37,2013-01-01 23:30:00,
2013-01-01 18:35:00,64.2,57.2,30.00,SW,225,0.0,0.0,78,0.00,CLR,,0.00,WeatherDisplay:10.37,2013-01-01 23:35:00,
2013-01-01 18:40:00,63.9,57.2,30.00,SW,225,0.0,0.0,79,0.00,CLR,,0.00,WeatherDisplay:10.37,2013-01-01 23:40:00,
2013-01-01 18:45:00,63.3,56.7,30.00,SW,225,0.0,0.0,79,0.00,CLR,,0.00,WeatherDisplay:10.37,2013-01-01 23:45:00,
2013-01-01 18:50:00,63.0,56.7,30.01,SW,225,0.0,0.0,80,0.00,CLR,,0.00,WeatherDisplay:10.37,2013-01-01 23:50:00,
2013-01-01 18:55:00,62.4,56.5,30.01,SW,225,0.0,0.0,81,0.00,CLR,,0.00,WeatherDisplay:10.37,2013-01-01 23:55:00,
2013-01-01 19:00:00,62.2,56.3,30.01,SW,225,0.0,0.0,81,0.00,CLR,,0.00,WeatherDisplay:10.37,2013-01-02 00:00:00,
2013-01-01 21:00:00,62.1,56.2,30.01,SW,225,0.0,0.0,81,0.00,CLR,,0.00,WeatherDisplay:10.37,2013-01-02 02:00:00,
2013-01-01 21:05:00,57.7,55.1,30.01,SW,225,0.0,0.0,91,0.00,CLR,,0.00,WeatherDisplay:10.37,2013-01-02 02:05:00,
2013-01-01 21:10:00,57.9,55.6,30.00,SW,225,0.0,0.0,92,0.00,CLR,,0.00,WeatherDisplay:10.37,2013-01-02 02:10:00,
2013-01-01 21:15:00,57.9,55.6,30.00,SW,225,0.0,0.0,92,0.00,CLR,,0.00,WeatherDisplay:10.37,2013-01-02 02:15:00,
2013-01-01 21:20:00,57.9,55.3,30.00,SW,225,0.0,0.0,91,0.00,CLR,,0.00,WeatherDisplay:10.37,2013-01-02 02:20:00,
2013-01-01 21:25:00,57.9,55.6,30.00,SW,225,0.0,0.0,92,0.00,CLR,,0.00,WeatherDisplay:10.37,2013-01-02 02:25:00,
2013-01-01 21:30:00,58.3,56.0,30.00,SW,225,0.0,0.0,92,0.00,CLR,,0.00,WeatherDisplay:10.37,2013-01-02 02:30:00,
2013-01-01 21:35:00,59.5,56.9,30.01,SW,225,0.0,2.3,91,0.00,CLR,,0.00,WeatherDisplay:10.37,2013-01-02 02:35:00,
2013-01-01 21:40:00,60.4,56.9,30.01,SW,225,0.0,0.0,88,0.00,CLR,,0.00,WeatherDisplay:10.37,2013-01-02 02:40:00,
2013-01-01 21:45:00,61.2,57.3,30.01,SW,225,0.9,2.7,87,0.00,CLR,,0.00,WeatherDisplay:10.37,2013-01-02 02:45:00,
2013-01-01 21:50:00,61.9,57.3,30.01,SW,225,0.3,2.3,85,0.00,CLR,,0.00,WeatherDisplay:10.37,2013-01-02 02:50:00,
2013-01-01 21:55:00,62.1,57.5,30.00,SW,225,0.3,2.3,85,0.00,CLR,,0.00,WeatherDisplay:10.37,2013-01-02 02:55:00,
2013-01-01 22:00:00,62.2,57.7,30.01,SW,225,0.2,2.3,85,0.00,CLR,,0.00,WeatherDisplay:10.37,2013-01-02 03:00:00,
2013-01-01 22:05:00,62.2,57.3,30.00,SW,225,0.4,5.8,84,0.00,CLR,,0.00,WeatherDisplay:10.37,2013-01-02 03:05:00,
2013-01-01 22:10:00,62.2,57.3,30.00,SW,225,0.3,1.1,84,0.00,CLR,,0.00,WeatherDisplay:10.37,2013-01-02 03:10:00,
2013-01-01 22:15:00,62.2,57.3,30.01,SW,225,0.0,2.3,84,0.00,CLR,,0.00,WeatherDisplay:10.37,2013-01-02 03:15:00,
2013-01-01 22:20:00,62.4,57.5,30.01,SW,225,0.0,2.3,84,0.00,CLR,,0.00,WeatherDisplay:10.37,2013-01-02 03:20:00,
2013-01-01 22:25:00,62.4,57.5,30.00,SW,225,0.5,2.8,84,0.00,CLR,,0.00,WeatherDisplay:10.37,2013-01-02 03:25:00,
2013-01-01 22:30:00,62.4,57.2,30.00,SW,225,0.0,0.0,83,0.00,CLR,,0.00,WeatherDisplay:10.37,2013-01-02 03:30:00,
2013-01-01 22:35:00,62.4,57.5,30.00,SW,225,0.2,1.1,84,0.00,CLR,,0.00,WeatherDisplay:10.37,2013-01-02 03:35:00,
2013-01-01 22:40:00,62.4,57.2,30.00,SW,225,0.4,2.3,83,0.00,CLR,,0.00,WeatherDisplay:10.37,2013-01-02 03:40:00,
2013-01-01 22:45:00,62.4,57.2,30.00,SW,225,0.0,2.3,83,0.00,CLR,,0.00,WeatherDisplay:10.37,2013-01-02 03:45:00,
2013-01-01 22:50:00,62.6,57.4,30.00,SW,225,0.5,2.3,83,0.00,CLR,,0.00,WeatherDisplay:10.37,2013-01-02 03:50:00,
2013-01-01 22:55:00,62.6,57.4,30.00,SW,225,0.0,1.4,83,0.00,CLR,,0.00,WeatherDisplay:10.37,2013-01-02 03:55:00,
2013-01-01 23:00:00,62.4,57.2,30.01,SW,225,0.1,2.3,83,0.00,CLR,,0.00,WeatherDisplay:10.37,2013-01-02 04:00:00,
2013-01-01 23:05:00,62.4,57.2,30.00,SW,225,0.6,2.3,83,0.00,CLR,,0.00,WeatherDisplay:10.37,2013-01-02 04:05:00,
2013-01-01 23:10:00,62.8,57.5,30.00,SW,225,0.1,2.3,83,0.00,CLR,,0.00,WeatherDisplay:10.37,2013-01-02 04:10:00,
2013-01-01 23:15:00,62.8,57.5,30.00,SW,225,1.1,5.8,83,0.00,CLR,,0.00,WeatherDisplay:10.37,2013-01-02 04:15:00,
2013-01-01 23:20:00,62.8,57.2,30.00,SW,225,0.0,2.3,82,0.00,CLR,,0.00,WeatherDisplay:10.37,2013-01-02 04:20:00,
2013-01-01 23:25:00,62.8,57.2,30.00,SW,225,0.7,1.4,82,0.00,CLR,,0.00,WeatherDisplay:10.37,2013-01-02 04:25:00,
2013-01-01 23:30:00,62.8,57.2,29.99,SW,225,0.0,0.0,82,0.00,CLR,,0.00,WeatherDisplay:10.37,2013-01-02 04:30:00,
2013-01-01 23:35:00,62.4,57.2,29.99,SW,225,0.3,2.8,83,0.00,CLR,,0.00,WeatherDisplay:10.37,2013-01-02 04:35:00,
2013-01-01 23:40:00,62.4,57.2,29.99,SW,225,0.2,5.8,83,0.00,CLR,,0.00,WeatherDisplay:10.37,2013-01-02 04:40:00,
2013-01-01 23:45:00,62.4,57.2,29.99,SW,225,0.7,2.3,83,0.00,CLR,,0.00,WeatherDisplay:10.37,2013-01-02 04:45:00,
2013-01-01 23:50:00,62.2,57.0,29.99,SW,225,0.3,1.1,83,0.00,CLR,,0.00,WeatherDisplay:10.37,2013-01-02 04:50:00,
2013-01-01 23:55:00,62.4,57.2,29.98,SW,225,0.3,2.3,83,0.00,CLR,,0.00,WeatherDisplay:10.37,2013-01-02 04:55:00,